sensor_id;sensor_type;location;lat;lon;timestamp;temperature;humidity
76291;DHT22;65100;46.884;17.410;2023-04-25T00:02:00;12.50;69.06
76291;DHT22;65100;46.884;17.410;2023-04-25T00:04:26;12.54;70.27
76291;DHT22;65100;46.884;17.410;2023-04-25T00:06:53;12.47;69.26
76291;DHT22;65100;46.884;17.410;2023-04-25T00:09:19;12.53;68.43
76291;DHT22;65100;46.884;17.410;2023-04-25T00:11:44;12.57;69.39
76291;DHT22;65100;46.884;17.410;2023-04-25T00:14:10;12.57;67.87
76291;DHT22;65100;46.884;17.410;2023-04-25T00:16:35;12.54;68.73
76291;DHT22;65100;46.884;17.410;2023-04-25T00:19:01;12.53;68.06
76291;DHT22;65100;46.884;17.410;2023-04-25T00:21:29;12.56;68.20
76291;DHT22;65100;46.884;17.410;2023-04-25T00:23:56;12.56;67.17
76291;DHT22;65100;46.884;17.410;2023-04-25T00:26:22;12.57;67.40
76291;DHT22;65100;46.884;17.410;2023-04-25T00:28:48;12.57;67.11
76291;DHT22;65100;46.884;17.410;2023-04-25T00:31:13;12.58;67.06
76291;DHT22;65100;46.884;17.410;2023-04-25T00:33:39;12.61;66.58
76291;DHT22;65100;46.884;17.410;2023-04-25T00:36:05;12.61;66.83
76291;DHT22;65100;46.884;17.410;2023-04-25T00:38:31;12.60;65.60
76291;DHT22;65100;46.884;17.410;2023-04-25T00:40:56;12.60;65.52
76291;DHT22;65100;46.884;17.410;2023-04-25T00:43:25;12.64;66.55
76291;DHT22;65100;46.884;17.410;2023-04-25T00:45:50;12.56;66.12
76291;DHT22;65100;46.884;17.410;2023-04-25T00:48:17;12.60;65.25
76291;DHT22;65100;46.884;17.410;2023-04-25T00:50:54;12.64;65.98
76291;DHT22;65100;46.884;17.410;2023-04-25T00:53:25;12.58;64.58
76291;DHT22;65100;46.884;17.410;2023-04-25T00:55:51;12.61;64.24
76291;DHT22;65100;46.884;17.410;2023-04-25T00:58:18;12.60;63.88
76291;DHT22;65100;46.884;17.410;2023-04-25T01:00:45;12.58;67.88
76291;DHT22;65100;46.884;17.410;2023-04-25T01:03:12;12.58;66.77
76291;DHT22;65100;46.884;17.410;2023-04-25T01:05:40;12.51;65.20
76291;DHT22;65100;46.884;17.410;2023-04-25T01:08:06;12.50;65.92
76291;DHT22;65100;46.884;17.410;2023-04-25T01:10:32;12.54;64.94
76291;DHT22;65100;46.884;17.410;2023-04-25T01:12:58;12.57;65.61
76291;DHT22;65100;46.884;17.410;2023-04-25T01:15:23;12.57;63.68
76291;DHT22;65100;46.884;17.410;2023-04-25T01:17:49;12.60;64.24
76291;DHT22;65100;46.884;17.410;2023-04-25T01:20:15;12.64;64.99
76291;DHT22;65100;46.884;17.410;2023-04-25T01:22:42;12.56;64.10
76291;DHT22;65100;46.884;17.410;2023-04-25T01:25:08;12.57;64.45
76291;DHT22;65100;46.884;17.410;2023-04-25T01:27:57;12.56;64.49
76291;DHT22;65100;46.884;17.410;2023-04-25T01:30:23;12.43;65.45
76291;DHT22;65100;46.884;17.410;2023-04-25T01:32:49;12.46;64.04
76291;DHT22;65100;46.884;17.410;2023-04-25T01:35:14;12.57;64.18
76291;DHT22;65100;46.884;17.410;2023-04-25T01:37:43;12.51;64.58
76291;DHT22;65100;46.884;17.410;2023-04-25T01:40:10;12.44;65.67
76291;DHT22;65100;46.884;17.410;2023-04-25T01:42:38;12.47;67.46
76291;DHT22;65100;46.884;17.410;2023-04-25T01:45:04;12.41;66.92
76291;DHT22;65100;46.884;17.410;2023-04-25T01:47:31;12.34;66.93
76291;DHT22;65100;46.884;17.410;2023-04-25T01:49:56;12.40;64.99
76291;DHT22;65100;46.884;17.410;2023-04-25T01:52:22;12.37;66.67
76291;DHT22;65100;46.884;17.410;2023-04-25T01:54:48;12.32;66.27
76291;DHT22;65100;46.884;17.410;2023-04-25T01:57:15;12.30;65.43
76291;DHT22;65100;46.884;17.410;2023-04-25T01:59:42;12.46;65.95
76291;DHT22;65100;46.884;17.410;2023-04-25T02:02:08;12.41;63.72
76291;DHT22;65100;46.884;17.410;2023-04-25T02:04:33;12.43;65.22
76291;DHT22;65100;46.884;17.410;2023-04-25T02:06:59;12.38;64.32
76291;DHT22;65100;46.884;17.410;2023-04-25T02:09:24;12.37;65.37
76291;DHT22;65100;46.884;17.410;2023-04-25T02:11:50;12.37;64.35
76291;DHT22;65100;46.884;17.410;2023-04-25T02:14:15;12.37;64.76
76291;DHT22;65100;46.884;17.410;2023-04-25T02:16:41;12.36;64.45
76291;DHT22;65100;46.884;17.410;2023-04-25T02:19:09;12.37;64.01
76291;DHT22;65100;46.884;17.410;2023-04-25T02:21:35;12.37;64.52
76291;DHT22;65100;46.884;17.410;2023-04-25T02:24:01;12.29;64.12
76291;DHT22;65100;46.884;17.410;2023-04-25T02:26:26;12.33;65.25
76291;DHT22;65100;46.884;17.410;2023-04-25T02:28:52;12.27;63.60
76291;DHT22;65100;46.884;17.410;2023-04-25T02:31:17;12.32;65.17
76291;DHT22;65100;46.884;17.410;2023-04-25T02:33:43;12.30;64.34
76291;DHT22;65100;46.884;17.410;2023-04-25T02:36:09;12.23;63.15
76291;DHT22;65100;46.884;17.410;2023-04-25T02:38:35;12.32;64.26
76291;DHT22;65100;46.884;17.410;2023-04-25T02:41:00;12.27;65.04
76291;DHT22;65100;46.884;17.410;2023-04-25T02:43:26;12.34;64.35
76291;DHT22;65100;46.884;17.410;2023-04-25T02:45:51;12.37;65.20
76291;DHT22;65100;46.884;17.410;2023-04-25T02:48:17;12.34;65.44
76291;DHT22;65100;46.884;17.410;2023-04-25T02:50:42;12.24;64.89
76291;DHT22;65100;46.884;17.410;2023-04-25T02:53:08;12.33;66.24
76291;DHT22;65100;46.884;17.410;2023-04-25T02:55:33;12.30;64.87
76291;DHT22;65100;46.884;17.410;2023-04-25T02:57:59;12.17;66.19
76291;DHT22;65100;46.884;17.410;2023-04-25T03:00:25;12.22;65.02
76291;DHT22;65100;46.884;17.410;2023-04-25T03:02:50;12.23;64.81
76291;DHT22;65100;46.884;17.410;2023-04-25T03:05:16;12.20;64.73
76291;DHT22;65100;46.884;17.410;2023-04-25T03:07:42;12.17;62.97
76291;DHT22;65100;46.884;17.410;2023-04-25T03:10:09;12.19;64.77
76291;DHT22;65100;46.884;17.410;2023-04-25T03:12:35;12.17;63.59
76291;DHT22;65100;46.884;17.410;2023-04-25T03:15:00;12.17;64.56
76291;DHT22;65100;46.884;17.410;2023-04-25T03:17:26;12.10;63.80
76291;DHT22;65100;46.884;17.410;2023-04-25T03:19:51;12.13;63.36
76291;DHT22;65100;46.884;17.410;2023-04-25T03:22:17;12.17;64.71
76291;DHT22;65100;46.884;17.410;2023-04-25T03:24:43;12.13;64.36
76291;DHT22;65100;46.884;17.410;2023-04-25T03:27:08;12.10;63.87
76291;DHT22;65100;46.884;17.410;2023-04-25T03:29:34;12.10;63.15
76291;DHT22;65100;46.884;17.410;2023-04-25T03:31:59;12.12;63.64
76291;DHT22;65100;46.884;17.410;2023-04-25T03:34:25;12.16;65.44
76291;DHT22;65100;46.884;17.410;2023-04-25T03:36:51;12.14;64.35
76291;DHT22;65100;46.884;17.410;2023-04-25T03:39:16;12.10;64.68
76291;DHT22;65100;46.884;17.410;2023-04-25T03:41:42;12.03;62.90
76291;DHT22;65100;46.884;17.410;2023-04-25T03:44:07;12.16;65.26
76291;DHT22;65100;46.884;17.410;2023-04-25T03:46:33;12.16;63.19
76291;DHT22;65100;46.884;17.410;2023-04-25T03:48:58;12.20;63.29
76291;DHT22;65100;46.884;17.410;2023-04-25T03:51:24;12.16;64.62
76291;DHT22;65100;46.884;17.410;2023-04-25T03:53:51;12.12;64.10
76291;DHT22;65100;46.884;17.410;2023-04-25T03:56:16;12.17;63.13
76291;DHT22;65100;46.884;17.410;2023-04-25T03:58:42;12.22;63.81
76291;DHT22;65100;46.884;17.410;2023-04-25T04:01:07;12.19;63.47
76291;DHT22;65100;46.884;17.410;2023-04-25T04:03:34;12.27;64.28
76291;DHT22;65100;46.884;17.410;2023-04-25T04:06:01;12.24;62.86
76291;DHT22;65100;46.884;17.410;2023-04-25T04:08:28;12.24;63.03
76291;DHT22;65100;46.884;17.410;2023-04-25T04:10:53;12.23;63.04
76291;DHT22;65100;46.884;17.410;2023-04-25T04:13:18;12.29;63.22
76291;DHT22;65100;46.884;17.410;2023-04-25T04:15:44;12.30;63.45
76291;DHT22;65100;46.884;17.410;2023-04-25T04:18:10;12.29;63.36
76291;DHT22;65100;46.884;17.410;2023-04-25T04:20:35;12.33;63.09
76291;DHT22;65100;46.884;17.410;2023-04-25T04:23:01;12.27;63.36
76291;DHT22;65100;46.884;17.410;2023-04-25T04:25:27;12.29;63.77
76291;DHT22;65100;46.884;17.410;2023-04-25T04:27:52;12.38;63.05
76291;DHT22;65100;46.884;17.410;2023-04-25T04:30:23;12.36;62.69
76291;DHT22;65100;46.884;17.410;2023-04-25T04:32:50;12.30;62.58
76291;DHT22;65100;46.884;17.410;2023-04-25T04:35:16;12.32;62.02
76291;DHT22;65100;46.884;17.410;2023-04-25T04:37:41;12.29;63.76
76291;DHT22;65100;46.884;17.410;2023-04-25T04:40:07;12.33;63.75
76291;DHT22;65100;46.884;17.410;2023-04-25T04:42:33;12.27;62.19
76291;DHT22;65100;46.884;17.410;2023-04-25T04:44:58;12.29;63.00
76291;DHT22;65100;46.884;17.410;2023-04-25T04:47:26;12.23;63.00
76291;DHT22;65100;46.884;17.410;2023-04-25T04:49:56;12.30;62.46
76291;DHT22;65100;46.884;17.410;2023-04-25T04:52:21;12.30;62.39
76291;DHT22;65100;46.884;17.410;2023-04-25T04:54:46;12.22;62.42
76291;DHT22;65100;46.884;17.410;2023-04-25T04:57:12;12.34;64.37
76291;DHT22;65100;46.884;17.410;2023-04-25T04:59:38;12.38;63.58
76291;DHT22;65100;46.884;17.410;2023-04-25T05:02:03;12.38;62.62
76291;DHT22;65100;46.884;17.410;2023-04-25T05:04:29;12.44;65.86
76291;DHT22;65100;46.884;17.410;2023-04-25T05:06:54;12.41;62.46
76291;DHT22;65100;46.884;17.410;2023-04-25T05:09:20;12.37;63.85
76291;DHT22;65100;46.884;17.410;2023-04-25T05:11:45;12.41;64.45
76291;DHT22;65100;46.884;17.410;2023-04-25T05:14:11;12.61;65.25
76291;DHT22;65100;46.884;17.410;2023-04-25T05:16:36;12.63;64.54
76291;DHT22;65100;46.884;17.410;2023-04-25T05:19:02;12.58;64.41
76291;DHT22;65100;46.884;17.410;2023-04-25T05:21:27;12.60;65.11
76291;DHT22;65100;46.884;17.410;2023-04-25T05:23:53;12.81;64.34
76291;DHT22;65100;46.884;17.410;2023-04-25T05:26:19;12.85;63.42
76291;DHT22;65100;46.884;17.410;2023-04-25T05:28:45;12.94;64.17
76291;DHT22;65100;46.884;17.410;2023-04-25T05:31:11;13.04;64.30
76291;DHT22;65100;46.884;17.410;2023-04-25T05:33:37;13.02;64.77
76291;DHT22;65100;46.884;17.410;2023-04-25T05:36:03;13.15;62.91
76291;DHT22;65100;46.884;17.410;2023-04-25T05:38:28;13.16;63.69
76291;DHT22;65100;46.884;17.410;2023-04-25T05:40:54;13.25;63.85
76291;DHT22;65100;46.884;17.410;2023-04-25T05:43:22;13.32;63.79
76291;DHT22;65100;46.884;17.410;2023-04-25T05:45:48;13.28;62.66
76291;DHT22;65100;46.884;17.410;2023-04-25T05:48:13;13.26;62.58
76291;DHT22;65100;46.884;17.410;2023-04-25T05:50:39;13.16;63.32
76291;DHT22;65100;46.884;17.410;2023-04-25T05:53:04;13.19;62.93
76291;DHT22;65100;46.884;17.410;2023-04-25T05:55:31;13.14;62.63
76291;DHT22;65100;46.884;17.410;2023-04-25T05:57:56;13.22;62.36
76291;DHT22;65100;46.884;17.410;2023-04-25T06:00:22;13.22;63.65
76291;DHT22;65100;46.884;17.410;2023-04-25T06:02:48;13.28;62.91
76291;DHT22;65100;46.884;17.410;2023-04-25T06:05:13;13.29;61.65
76291;DHT22;65100;46.884;17.410;2023-04-25T06:07:39;13.31;62.47
76291;DHT22;65100;46.884;17.410;2023-04-25T06:10:05;13.42;61.62
76291;DHT22;65100;46.884;17.410;2023-04-25T06:12:32;13.41;62.03
76291;DHT22;65100;46.884;17.410;2023-04-25T06:14:59;13.52;60.90
76291;DHT22;65100;46.884;17.410;2023-04-25T06:17:24;13.70;62.30
76291;DHT22;65100;46.884;17.410;2023-04-25T06:19:51;13.75;59.85
76291;DHT22;65100;46.884;17.410;2023-04-25T06:22:16;13.93;59.32
76291;DHT22;65100;46.884;17.410;2023-04-25T06:24:42;14.37;59.80
76291;DHT22;65100;46.884;17.410;2023-04-25T06:27:07;14.61;58.99
76291;DHT22;65100;46.884;17.410;2023-04-25T06:29:33;14.70;58.28
76291;DHT22;65100;46.884;17.410;2023-04-25T06:31:58;14.85;58.43
76291;DHT22;65100;46.884;17.410;2023-04-25T06:34:24;15.11;56.75
76291;DHT22;65100;46.884;17.410;2023-04-25T06:36:49;15.18;54.36
76291;DHT22;65100;46.884;17.410;2023-04-25T06:39:15;15.99;56.63
76291;DHT22;65100;46.884;17.410;2023-04-25T06:41:41;17.04;51.84
76291;DHT22;65100;46.884;17.410;2023-04-25T06:44:07;17.72;50.81
76291;DHT22;65100;46.884;17.410;2023-04-25T06:46:32;18.94;49.18
76291;DHT22;65100;46.884;17.410;2023-04-25T06:49:18;20.57;43.54
76291;DHT22;65100;46.884;17.410;2023-04-25T06:52:04;22.08;42.72
76291;DHT22;65100;46.884;17.410;2023-04-25T06:54:30;21.39;40.85
76291;DHT22;65100;46.884;17.410;2023-04-25T06:56:56;21.01;41.83
76291;DHT22;65100;46.884;17.410;2023-04-25T06:59:22;20.70;42.08
76291;DHT22;65100;46.884;17.410;2023-04-25T07:01:47;19.59;43.51
76291;DHT22;65100;46.884;17.410;2023-04-25T07:04:13;18.32;46.00
76291;DHT22;65100;46.884;17.410;2023-04-25T07:06:39;18.23;45.95
76291;DHT22;65100;46.884;17.410;2023-04-25T07:09:11;17.49;46.88
76291;DHT22;65100;46.884;17.410;2023-04-25T07:11:37;17.95;44.95
76291;DHT22;65100;46.884;17.410;2023-04-25T07:14:02;18.53;45.26
76291;DHT22;65100;46.884;17.410;2023-04-25T07:16:28;19.14;43.93
76291;DHT22;65100;46.884;17.410;2023-04-25T07:18:54;19.27;41.87
76291;DHT22;65100;46.884;17.410;2023-04-25T07:21:19;18.77;44.06
76291;DHT22;65100;46.884;17.410;2023-04-25T07:23:45;19.01;44.26
76291;DHT22;65100;46.884;17.410;2023-04-25T07:26:10;18.97;41.87
76291;DHT22;65100;46.884;17.410;2023-04-25T07:28:36;19.36;43.85
76291;DHT22;65100;46.884;17.410;2023-04-25T07:31:01;19.63;41.05
76291;DHT22;65100;46.884;17.410;2023-04-25T07:33:27;19.89;40.95
76291;DHT22;65100;46.884;17.410;2023-04-25T07:35:53;20.03;41.92
76291;DHT22;65100;46.884;17.410;2023-04-25T07:38:19;19.96;41.70
76291;DHT22;65100;46.884;17.410;2023-04-25T07:40:44;20.03;40.34
76291;DHT22;65100;46.884;17.410;2023-04-25T07:43:10;19.69;40.47
76291;DHT22;65100;46.884;17.410;2023-04-25T07:45:39;19.42;41.53
76291;DHT22;65100;46.884;17.410;2023-04-25T07:48:04;19.18;44.29
76291;DHT22;65100;46.884;17.410;2023-04-25T07:50:30;19.69;42.62
76291;DHT22;65100;46.884;17.410;2023-04-25T07:52:56;20.05;40.79
76291;DHT22;65100;46.884;17.410;2023-04-25T07:55:21;20.25;40.28
76291;DHT22;65100;46.884;17.410;2023-04-25T07:57:47;20.37;41.82
76291;DHT22;65100;46.884;17.410;2023-04-25T08:00:13;19.90;41.65
76291;DHT22;65100;46.884;17.410;2023-04-25T08:02:40;19.28;43.45
76291;DHT22;65100;46.884;17.410;2023-04-25T08:05:05;18.84;45.44
76291;DHT22;65100;46.884;17.410;2023-04-25T08:07:33;18.46;44.96
76291;DHT22;65100;46.884;17.410;2023-04-25T08:09:59;18.09;41.90
76291;DHT22;65100;46.884;17.410;2023-04-25T08:12:25;18.44;43.11
76291;DHT22;65100;46.884;17.410;2023-04-25T08:14:50;18.37;42.28
76291;DHT22;65100;46.884;17.410;2023-04-25T08:17:16;18.13;44.70
76291;DHT22;65100;46.884;17.410;2023-04-25T08:19:41;18.02;44.79
76291;DHT22;65100;46.884;17.410;2023-04-25T08:22:08;17.75;44.52
76291;DHT22;65100;46.884;17.410;2023-04-25T08:24:33;17.62;44.46
76291;DHT22;65100;46.884;17.410;2023-04-25T08:26:59;17.62;48.22
76291;DHT22;65100;46.884;17.410;2023-04-25T08:29:24;17.56;46.82
76291;DHT22;65100;46.884;17.410;2023-04-25T08:31:51;17.41;46.63
76291;DHT22;65100;46.884;17.410;2023-04-25T08:34:18;17.43;47.10
76291;DHT22;65100;46.884;17.410;2023-04-25T08:36:44;17.34;45.09
76291;DHT22;65100;46.884;17.410;2023-04-25T08:39:09;17.45;43.99
76291;DHT22;65100;46.884;17.410;2023-04-25T08:41:37;17.35;45.47
76291;DHT22;65100;46.884;17.410;2023-04-25T08:44:03;17.42;44.20
76291;DHT22;65100;46.884;17.410;2023-04-25T08:46:30;17.51;45.29
76291;DHT22;65100;46.884;17.410;2023-04-25T08:49:00;17.28;44.62
76291;DHT22;65100;46.884;17.410;2023-04-25T08:51:26;17.32;47.26
76291;DHT22;65100;46.884;17.410;2023-04-25T08:53:53;17.29;46.51
76291;DHT22;65100;46.884;17.410;2023-04-25T08:56:19;17.17;43.21
76291;DHT22;65100;46.884;17.410;2023-04-25T08:58:50;17.27;45.34
76291;DHT22;65100;46.884;17.410;2023-04-25T09:01:16;17.35;45.31
76291;DHT22;65100;46.884;17.410;2023-04-25T09:03:44;17.62;43.28
76291;DHT22;65100;46.884;17.410;2023-04-25T09:06:11;17.75;42.44
76291;DHT22;65100;46.884;17.410;2023-04-25T09:08:37;17.59;43.37
76291;DHT22;65100;46.884;17.410;2023-04-25T09:11:06;17.36;44.76
76291;DHT22;65100;46.884;17.410;2023-04-25T09:13:31;17.62;47.11
76291;DHT22;65100;46.884;17.410;2023-04-25T09:15:57;17.68;45.32
76291;DHT22;65100;46.884;17.410;2023-04-25T09:18:29;17.71;44.91
76291;DHT22;65100;46.884;17.410;2023-04-25T09:20:58;17.71;41.37
76291;DHT22;65100;46.884;17.410;2023-04-25T09:23:24;17.56;41.63
76291;DHT22;65100;46.884;17.410;2023-04-25T09:25:51;17.63;43.57
76291;DHT22;65100;46.884;17.410;2023-04-25T09:28:23;17.55;44.53
76291;DHT22;65100;46.884;17.410;2023-04-25T09:30:54;17.38;45.31
76291;DHT22;65100;46.884;17.410;2023-04-25T09:36:34;17.19;47.54
76291;DHT22;65100;46.884;17.410;2023-04-25T09:38:59;17.22;48.68
76291;DHT22;65100;46.884;17.410;2023-04-25T09:41:26;17.38;47.15
76291;DHT22;65100;46.884;17.410;2023-04-25T09:43:51;17.22;47.51
76291;DHT22;65100;46.884;17.410;2023-04-25T09:46:17;17.12;49.07
76291;DHT22;65100;46.884;17.410;2023-04-25T09:48:50;17.25;48.79
76291;DHT22;65100;46.884;17.410;2023-04-25T09:51:16;17.45;45.18
76291;DHT22;65100;46.884;17.410;2023-04-25T09:53:44;17.59;44.82
76291;DHT22;65100;46.884;17.410;2023-04-25T09:56:12;17.78;48.71
76291;DHT22;65100;46.884;17.410;2023-04-25T09:58:39;17.68;45.67
76291;DHT22;65100;46.884;17.410;2023-04-25T10:01:06;17.63;47.10
76291;DHT22;65100;46.884;17.410;2023-04-25T10:03:34;17.65;46.62
76291;DHT22;65100;46.884;17.410;2023-04-25T10:06:02;17.65;47.10
76291;DHT22;65100;46.884;17.410;2023-04-25T10:08:32;17.45;45.27
76291;DHT22;65100;46.884;17.410;2023-04-25T10:11:02;17.56;45.75
76291;DHT22;65100;46.884;17.410;2023-04-25T10:13:32;17.66;48.34
76291;DHT22;65100;46.884;17.410;2023-04-25T10:15:58;17.45;48.77
76291;DHT22;65100;46.884;17.410;2023-04-25T10:18:25;17.43;46.60
76291;DHT22;65100;46.884;17.410;2023-04-25T10:20:57;17.55;45.02
76291;DHT22;65100;46.884;17.410;2023-04-25T10:23:23;17.49;47.04
76291;DHT22;65100;46.884;17.410;2023-04-25T10:25:53;17.34;44.88
76291;DHT22;65100;46.884;17.410;2023-04-25T10:28:19;17.51;44.02
76291;DHT22;65100;46.884;17.410;2023-04-25T10:33:38;17.83;49.53
76291;DHT22;65100;46.884;17.410;2023-04-25T10:36:12;17.82;47.28
76291;DHT22;65100;46.884;17.410;2023-04-25T10:38:39;17.79;47.05
76291;DHT22;65100;46.884;17.410;2023-04-25T10:41:06;17.63;43.99
76291;DHT22;65100;46.884;17.410;2023-04-25T10:43:41;17.53;50.50
76291;DHT22;65100;46.884;17.410;2023-04-25T10:46:16;17.46;47.15
76291;DHT22;65100;46.884;17.410;2023-04-25T10:51:23;17.90;47.76
76291;DHT22;65100;46.884;17.410;2023-04-25T10:56:21;17.93;48.68
76291;DHT22;65100;46.884;17.410;2023-04-25T10:58:47;17.97;46.81
76291;DHT22;65100;46.884;17.410;2023-04-25T11:01:24;18.26;44.73
76291;DHT22;65100;46.884;17.410;2023-04-25T11:03:57;18.13;48.91
76291;DHT22;65100;46.884;17.410;2023-04-25T11:07:03;18.36;46.87
76291;DHT22;65100;46.884;17.410;2023-04-25T11:09:32;18.25;46.62
76291;DHT22;65100;46.884;17.410;2023-04-25T11:11:59;17.99;47.33
76291;DHT22;65100;46.884;17.410;2023-04-25T11:14:26;17.59;48.32
76291;DHT22;65100;46.884;17.410;2023-04-25T11:16:56;17.25;46.17
76291;DHT22;65100;46.884;17.410;2023-04-25T11:19:22;17.31;46.92
76291;DHT22;65100;46.884;17.410;2023-04-25T11:21:48;17.38;46.14
76291;DHT22;65100;46.884;17.410;2023-04-25T11:24:14;17.69;49.29
76291;DHT22;65100;46.884;17.410;2023-04-25T11:26:42;17.72;47.85
76291;DHT22;65100;46.884;17.410;2023-04-25T11:29:08;17.73;46.52
76291;DHT22;65100;46.884;17.410;2023-04-25T11:31:34;17.68;45.63
76291;DHT22;65100;46.884;17.410;2023-04-25T11:33:59;17.63;48.87
76291;DHT22;65100;46.884;17.410;2023-04-25T11:36:25;17.53;44.84
76291;DHT22;65100;46.884;17.410;2023-04-25T11:38:52;17.59;49.05
76291;DHT22;65100;46.884;17.410;2023-04-25T11:41:21;17.82;47.29
76291;DHT22;65100;46.884;17.410;2023-04-25T11:43:48;18.23;47.46
76291;DHT22;65100;46.884;17.410;2023-04-25T11:46:14;18.41;46.65
76291;DHT22;65100;46.884;17.410;2023-04-25T11:48:41;18.34;44.40
76291;DHT22;65100;46.884;17.410;2023-04-25T11:51:07;18.19;41.49
76291;DHT22;65100;46.884;17.410;2023-04-25T11:53:33;18.00;47.05
76291;DHT22;65100;46.884;17.410;2023-04-25T11:55:58;17.87;46.02
76291;DHT22;65100;46.884;17.410;2023-04-25T11:58:25;17.65;46.84
76291;DHT22;65100;46.884;17.410;2023-04-25T12:00:51;17.25;48.66
76291;DHT22;65100;46.884;17.410;2023-04-25T12:03:17;17.07;50.01
76291;DHT22;65100;46.884;17.410;2023-04-25T12:05:45;16.56;51.18
76291;DHT22;65100;46.884;17.410;2023-04-25T12:08:14;16.34;54.55
76291;DHT22;65100;46.884;17.410;2023-04-25T12:10:41;16.64;56.33
76291;DHT22;65100;46.884;17.410;2023-04-25T12:13:24;16.46;57.71
76291;DHT22;65100;46.884;17.410;2023-04-25T12:15:50;16.27;57.85
76291;DHT22;65100;46.884;17.410;2023-04-25T12:18:19;15.70;61.78
76291;DHT22;65100;46.884;17.410;2023-04-25T12:20:45;15.28;61.70
76291;DHT22;65100;46.884;17.410;2023-04-25T12:23:11;15.05;65.62
76291;DHT22;65100;46.884;17.410;2023-04-25T12:25:42;14.89;66.76
76291;DHT22;65100;46.884;17.410;2023-04-25T12:28:19;14.89;67.02
76291;DHT22;65100;46.884;17.410;2023-04-25T12:33:22;14.94;67.47
76291;DHT22;65100;46.884;17.410;2023-04-25T12:35:47;15.19;66.72
76291;DHT22;65100;46.884;17.410;2023-04-25T12:38:29;15.15;68.15
76291;DHT22;65100;46.884;17.410;2023-04-25T12:40:56;15.46;64.69
76291;DHT22;65100;46.884;17.410;2023-04-25T12:43:22;15.63;64.97
76291;DHT22;65100;46.884;17.410;2023-04-25T12:45:55;15.81;64.00
76291;DHT22;65100;46.884;17.410;2023-04-25T12:48:22;15.67;65.30
76291;DHT22;65100;46.884;17.410;2023-04-25T12:50:48;16.03;63.82
76291;DHT22;65100;46.884;17.410;2023-04-25T12:53:19;16.30;59.10
76291;DHT22;65100;46.884;17.410;2023-04-25T12:55:45;16.33;60.42
76291;DHT22;65100;46.884;17.410;2023-04-25T12:58:14;16.56;60.27
76291;DHT22;65100;46.884;17.410;2023-04-25T13:00:40;16.74;57.65
76291;DHT22;65100;46.884;17.410;2023-04-25T13:03:05;16.97;54.02
76291;DHT22;65100;46.884;17.410;2023-04-25T13:05:31;17.01;53.88
76291;DHT22;65100;46.884;17.410;2023-04-25T13:07:57;17.07;55.74
76291;DHT22;65100;46.884;17.410;2023-04-25T13:10:22;17.31;53.75
76291;DHT22;65100;46.884;17.410;2023-04-25T13:12:48;17.53;55.75
76291;DHT22;65100;46.884;17.410;2023-04-25T13:15:13;17.63;52.66
76291;DHT22;65100;46.884;17.410;2023-04-25T13:17:41;17.75;53.83
76291;DHT22;65100;46.884;17.410;2023-04-25T13:20:07;17.75;51.95
76291;DHT22;65100;46.884;17.410;2023-04-25T13:22:35;17.95;51.67
76291;DHT22;65100;46.884;17.410;2023-04-25T13:25:03;18.12;54.88
76291;DHT22;65100;46.884;17.410;2023-04-25T13:27:28;17.97;49.94
76291;DHT22;65100;46.884;17.410;2023-04-25T13:29:54;17.85;51.52
76291;DHT22;65100;46.884;17.410;2023-04-25T13:32:19;17.89;52.34
76291;DHT22;65100;46.884;17.410;2023-04-25T13:34:45;17.83;51.81
76291;DHT22;65100;46.884;17.410;2023-04-25T13:37:10;17.95;51.65
76291;DHT22;65100;46.884;17.410;2023-04-25T13:39:36;17.81;48.71
76291;DHT22;65100;46.884;17.410;2023-04-25T13:42:01;17.61;47.29
76291;DHT22;65100;46.884;17.410;2023-04-25T13:44:27;17.61;46.87
76291;DHT22;65100;46.884;17.410;2023-04-25T13:46:52;17.49;46.23
76291;DHT22;65100;46.884;17.410;2023-04-25T13:49:18;17.46;46.10
76291;DHT22;65100;46.884;17.410;2023-04-25T13:51:43;17.48;46.02
76291;DHT22;65100;46.884;17.410;2023-04-25T13:54:09;17.52;45.72
76291;DHT22;65100;46.884;17.410;2023-04-25T13:56:35;17.58;45.94
76291;DHT22;65100;46.884;17.410;2023-04-25T13:59:00;17.75;44.46
76291;DHT22;65100;46.884;17.410;2023-04-25T14:01:26;18.02;45.87
76291;DHT22;65100;46.884;17.410;2023-04-25T14:03:53;18.34;47.93
76291;DHT22;65100;46.884;17.410;2023-04-25T14:06:18;18.33;44.10
76291;DHT22;65100;46.884;17.410;2023-04-25T14:08:49;18.12;45.76
76291;DHT22;65100;46.884;17.410;2023-04-25T14:11:16;17.87;44.43
76291;DHT22;65100;46.884;17.410;2023-04-25T14:13:43;17.81;44.07
76291;DHT22;65100;46.884;17.410;2023-04-25T14:16:09;17.82;45.74
76291;DHT22;65100;46.884;17.410;2023-04-25T14:18:35;17.83;41.92
76291;DHT22;65100;46.884;17.410;2023-04-25T14:21:00;17.86;44.10
76291;DHT22;65100;46.884;17.410;2023-04-25T14:23:26;18.00;50.60
76291;DHT22;65100;46.884;17.410;2023-04-25T14:25:51;17.58;50.57
76291;DHT22;65100;46.884;17.410;2023-04-25T14:28:17;17.22;51.51
76291;DHT22;65100;46.884;17.410;2023-04-25T14:30:42;17.03;51.44
76291;DHT22;65100;46.884;17.410;2023-04-25T14:33:08;16.97;53.51
76291;DHT22;65100;46.884;17.410;2023-04-25T14:35:35;17.08;51.47
76291;DHT22;65100;46.884;17.410;2023-04-25T14:38:00;17.17;53.41
76291;DHT22;65100;46.884;17.410;2023-04-25T14:40:26;17.25;50.55
76291;DHT22;65100;46.884;17.410;2023-04-25T14:42:51;17.36;50.28
76291;DHT22;65100;46.884;17.410;2023-04-25T14:45:17;17.42;49.75
76291;DHT22;65100;46.884;17.410;2023-04-25T14:47:43;17.42;46.05
76291;DHT22;65100;46.884;17.410;2023-04-25T14:50:09;17.61;49.39
76291;DHT22;65100;46.884;17.410;2023-04-25T14:52:35;17.61;48.35
76291;DHT22;65100;46.884;17.410;2023-04-25T14:55:00;17.56;47.83
76291;DHT22;65100;46.884;17.410;2023-04-25T14:57:33;17.48;48.38
76291;DHT22;65100;46.884;17.410;2023-04-25T14:59:59;17.12;48.56
76291;DHT22;65100;46.884;17.410;2023-04-25T15:02:25;16.73;50.77
76291;DHT22;65100;46.884;17.410;2023-04-25T15:04:52;16.59;50.29
76291;DHT22;65100;46.884;17.410;2023-04-25T15:07:17;16.65;48.93
76291;DHT22;65100;46.884;17.410;2023-04-25T15:09:43;16.83;47.91
76291;DHT22;65100;46.884;17.410;2023-04-25T15:12:09;16.94;51.23
76291;DHT22;65100;46.884;17.410;2023-04-25T15:14:34;16.94;50.83
76291;DHT22;65100;46.884;17.410;2023-04-25T15:17:00;17.01;52.09
76291;DHT22;65100;46.884;17.410;2023-04-25T15:19:26;16.91;51.52
76291;DHT22;65100;46.884;17.410;2023-04-25T15:21:52;16.70;52.83
76291;DHT22;65100;46.884;17.410;2023-04-25T15:24:18;16.49;53.04
76291;DHT22;65100;46.884;17.410;2023-04-25T15:26:44;16.21;54.39